sensor_id;sensor_type;location;lat;lon;timestamp;P1;durP1;ratioP1;P2;durP2;ratioP2
735;SDS011;352;48.626;9.238;2023-07-08T00:00:15;9.57;;;6.73;;
735;SDS011;352;48.626;9.238;2023-07-08T00:02:43;7.93;;;6.20;;
735;SDS011;352;48.626;9.238;2023-07-08T00:05:11;6.67;;;5.97;;
735;SDS011;352;48.626;9.238;2023-07-08T00:07:43;8.30;;;6.67;;
735;SDS011;352;48.626;9.238;2023-07-08T00:10:13;9.03;;;6.97;;
735;SDS011;352;48.626;9.238;2023-07-08T00:12:44;9.33;;;6.97;;
735;SDS011;352;48.626;9.238;2023-07-08T00:15:13;7.63;;;6.10;;
735;SDS011;352;48.626;9.238;2023-07-08T00:17:40;8.03;;;6.50;;
735;SDS011;352;48.626;9.238;2023-07-08T00:20:11;7.87;;;6.53;;
735;SDS011;352;48.626;9.238;2023-07-08T00:22:41;8.77;;;7.30;;
735;SDS011;352;48.626;9.238;2023-07-08T00:25:12;8.10;;;6.13;;
735;SDS011;352;48.626;9.238;2023-07-08T00:27:39;8.10;;;7.00;;
735;SDS011;352;48.626;9.238;2023-07-08T00:30:11;7.40;;;6.60;;
735;SDS011;352;48.626;9.238;2023-07-08T00:32:49;9.00;;;6.40;;
735;SDS011;352;48.626;9.238;2023-07-08T00:35:19;8.43;;;6.90;;
735;SDS011;352;48.626;9.238;2023-07-08T00:37:48;8.30;;;7.07;;
735;SDS011;352;48.626;9.238;2023-07-08T00:40:18;8.17;;;6.77;;
735;SDS011;352;48.626;9.238;2023-07-08T00:42:46;7.90;;;7.10;;
735;SDS011;352;48.626;9.238;2023-07-08T00:45:20;9.40;;;7.40;;
735;SDS011;352;48.626;9.238;2023-07-08T00:48:00;8.63;;;6.57;;
735;SDS011;352;48.626;9.238;2023-07-08T00:50:33;8.50;;;7.10;;
735;SDS011;352;48.626;9.238;2023-07-08T00:56:00;8.40;;;6.87;;
735;SDS011;352;48.626;9.238;2023-07-08T00:58:31;8.00;;;7.03;;
735;SDS011;352;48.626;9.238;2023-07-08T01:01:00;7.93;;;6.40;;
735;SDS011;352;48.626;9.238;2023-07-08T01:03:29;7.80;;;6.77;;
735;SDS011;352;48.626;9.238;2023-07-08T01:05:57;8.13;;;6.93;;
735;SDS011;352;48.626;9.238;2023-07-08T01:08:25;6.80;;;6.10;;
735;SDS011;352;48.626;9.238;2023-07-08T01:10:57;8.73;;;6.00;;
735;SDS011;352;48.626;9.238;2023-07-08T01:13:27;7.77;;;6.97;;
735;SDS011;352;48.626;9.238;2023-07-08T01:15:58;7.13;;;6.43;;
735;SDS011;352;48.626;9.238;2023-07-08T01:18:25;8.20;;;7.27;;
735;SDS011;352;48.626;9.238;2023-07-08T01:20:52;6.80;;;6.03;;
735;SDS011;352;48.626;9.238;2023-07-08T01:23:21;7.80;;;6.73;;
735;SDS011;352;48.626;9.238;2023-07-08T01:25:50;7.07;;;6.37;;
735;SDS011;352;48.626;9.238;2023-07-08T01:28:17;7.50;;;6.37;;
735;SDS011;352;48.626;9.238;2023-07-08T01:30:45;8.17;;;7.37;;
735;SDS011;352;48.626;9.238;2023-07-08T01:33:15;9.17;;;7.00;;
735;SDS011;352;48.626;9.238;2023-07-08T01:35:45;9.60;;;6.37;;
735;SDS011;352;48.626;9.238;2023-07-08T01:38:14;8.20;;;7.40;;
735;SDS011;352;48.626;9.238;2023-07-08T01:40:49;7.73;;;6.90;;
735;SDS011;352;48.626;9.238;2023-07-08T01:43:17;8.20;;;7.37;;
735;SDS011;352;48.626;9.238;2023-07-08T01:45:44;8.10;;;7.30;;
735;SDS011;352;48.626;9.238;2023-07-08T01:48:13;7.43;;;6.30;;
735;SDS011;352;48.626;9.238;2023-07-08T01:50:42;8.00;;;7.20;;
735;SDS011;352;48.626;9.238;2023-07-08T01:53:14;8.27;;;7.37;;
735;SDS011;352;48.626;9.238;2023-07-08T01:55:42;7.30;;;6.60;;
735;SDS011;352;48.626;9.238;2023-07-08T01:58:11;7.90;;;6.50;;
735;SDS011;352;48.626;9.238;2023-07-08T02:00:37;8.53;;;6.63;;
735;SDS011;352;48.626;9.238;2023-07-08T02:03:04;7.67;;;6.63;;
735;SDS011;352;48.626;9.238;2023-07-08T02:05:31;8.27;;;6.50;;
735;SDS011;352;48.626;9.238;2023-07-08T02:07:58;11.70;;;7.00;;
735;SDS011;352;48.626;9.238;2023-07-08T02:10:24;7.50;;;6.47;;
735;SDS011;352;48.626;9.238;2023-07-08T02:12:51;7.57;;;6.77;;
735;SDS011;352;48.626;9.238;2023-07-08T02:15:19;8.10;;;6.40;;
735;SDS011;352;48.626;9.238;2023-07-08T02:17:46;10.83;;;6.60;;
735;SDS011;352;48.626;9.238;2023-07-08T02:20:13;9.13;;;7.40;;
735;SDS011;352;48.626;9.238;2023-07-08T02:22:40;7.20;;;6.40;;
735;SDS011;352;48.626;9.238;2023-07-08T02:25:07;6.80;;;6.13;;
735;SDS011;352;48.626;9.238;2023-07-08T02:27:35;8.13;;;6.13;;
735;SDS011;352;48.626;9.238;2023-07-08T02:30:02;7.40;;;6.63;;
735;SDS011;352;48.626;9.238;2023-07-08T02:32:31;10.23;;;6.77;;
735;SDS011;352;48.626;9.238;2023-07-08T02:35:00;8.90;;;7.30;;
735;SDS011;352;48.626;9.238;2023-07-08T02:37:28;8.47;;;7.17;;
735;SDS011;352;48.626;9.238;2023-07-08T02:39:54;8.80;;;6.60;;
735;SDS011;352;48.626;9.238;2023-07-08T02:42:21;8.97;;;7.10;;
735;SDS011;352;48.626;9.238;2023-07-08T02:44:48;10.10;;;6.83;;
735;SDS011;352;48.626;9.238;2023-07-08T02:47:15;9.57;;;7.00;;
735;SDS011;352;48.626;9.238;2023-07-08T02:49:43;9.63;;;8.00;;
735;SDS011;352;48.626;9.238;2023-07-08T02:52:10;9.03;;;6.93;;
735;SDS011;352;48.626;9.238;2023-07-08T02:54:37;12.03;;;7.03;;
735;SDS011;352;48.626;9.238;2023-07-08T02:57:04;9.53;;;6.80;;
735;SDS011;352;48.626;9.238;2023-07-08T02:59:31;7.90;;;6.87;;
735;SDS011;352;48.626;9.238;2023-07-08T03:01:57;7.30;;;6.60;;
735;SDS011;352;48.626;9.238;2023-07-08T03:04:24;8.13;;;7.20;;
735;SDS011;352;48.626;9.238;2023-07-08T03:06:52;8.43;;;7.17;;
735;SDS011;352;48.626;9.238;2023-07-08T03:09:19;7.20;;;6.47;;
735;SDS011;352;48.626;9.238;2023-07-08T03:11:46;7.97;;;7.03;;
735;SDS011;352;48.626;9.238;2023-07-08T03:14:13;8.77;;;7.07;;
735;SDS011;352;48.626;9.238;2023-07-08T03:16:40;8.80;;;7.40;;
735;SDS011;352;48.626;9.238;2023-07-08T03:19:12;9.67;;;7.77;;
735;SDS011;352;48.626;9.238;2023-07-08T03:21:40;10.00;;;8.00;;
735;SDS011;352;48.626;9.238;2023-07-08T03:24:09;10.50;;;6.83;;
735;SDS011;352;48.626;9.238;2023-07-08T03:26:37;9.13;;;7.00;;
735;SDS011;352;48.626;9.238;2023-07-08T03:29:04;9.63;;;7.73;;
735;SDS011;352;48.626;9.238;2023-07-08T03:31:30;8.60;;;7.10;;
735;SDS011;352;48.626;9.238;2023-07-08T03:33:57;9.93;;;7.20;;
735;SDS011;352;48.626;9.238;2023-07-08T03:36:24;7.87;;;6.70;;
735;SDS011;352;48.626;9.238;2023-07-08T03:38:52;8.90;;;6.83;;
735;SDS011;352;48.626;9.238;2023-07-08T03:41:22;12.00;;;7.17;;
735;SDS011;352;48.626;9.238;2023-07-08T03:43:49;8.37;;;7.47;;
735;SDS011;352;48.626;9.238;2023-07-08T03:46:17;9.87;;;7.30;;
735;SDS011;352;48.626;9.238;2023-07-08T03:48:44;8.40;;;6.90;;
735;SDS011;352;48.626;9.238;2023-07-08T03:51:19;8.43;;;7.60;;
735;SDS011;352;48.626;9.238;2023-07-08T03:53:48;8.00;;;6.57;;
735;SDS011;352;48.626;9.238;2023-07-08T03:56:16;9.43;;;6.63;;
735;SDS011;352;48.626;9.238;2023-07-08T03:58:44;8.33;;;6.57;;
735;SDS011;352;48.626;9.238;2023-07-08T04:01:13;12.70;;;7.50;;
735;SDS011;352;48.626;9.238;2023-07-08T04:03:41;8.50;;;7.57;;
735;SDS011;352;48.626;9.238;2023-07-08T04:06:09;7.40;;;6.67;;
735;SDS011;352;48.626;9.238;2023-07-08T04:08:35;8.40;;;7.10;;
735;SDS011;352;48.626;9.238;2023-07-08T04:11:02;10.57;;;7.13;;
735;SDS011;352;48.626;9.238;2023-07-08T04:13:29;10.13;;;7.43;;
735;SDS011;352;48.626;9.238;2023-07-08T04:15:59;8.60;;;7.60;;
735;SDS011;352;48.626;9.238;2023-07-08T04:18:28;7.47;;;6.67;;
735;SDS011;352;48.626;9.238;2023-07-08T04:20:54;10.07;;;7.23;;
735;SDS011;352;48.626;9.238;2023-07-08T04:23:21;8.83;;;6.47;;
735;SDS011;352;48.626;9.238;2023-07-08T04:25:49;7.67;;;6.87;;
735;SDS011;352;48.626;9.238;2023-07-08T04:28:18;8.97;;;7.70;;
735;SDS011;352;48.626;9.238;2023-07-08T04:30:47;9.07;;;8.17;;
735;SDS011;352;48.626;9.238;2023-07-08T04:33:16;9.20;;;7.30;;
735;SDS011;352;48.626;9.238;2023-07-08T04:35:43;9.00;;;6.97;;
735;SDS011;352;48.626;9.238;2023-07-08T04:38:11;9.40;;;7.10;;
735;SDS011;352;48.626;9.238;2023-07-08T04:40:42;8.67;;;7.10;;
735;SDS011;352;48.626;9.238;2023-07-08T04:43:09;8.93;;;7.27;;
735;SDS011;352;48.626;9.238;2023-07-08T04:45:37;10.57;;;6.50;;
735;SDS011;352;48.626;9.238;2023-07-08T04:48:05;7.20;;;6.20;;
735;SDS011;352;48.626;9.238;2023-07-08T04:50:38;9.67;;;7.40;;
735;SDS011;352;48.626;9.238;2023-07-08T04:53:06;8.80;;;7.10;;
735;SDS011;352;48.626;9.238;2023-07-08T04:55:32;8.57;;;6.80;;
735;SDS011;352;48.626;9.238;2023-07-08T04:57:59;8.37;;;7.03;;
735;SDS011;352;48.626;9.238;2023-07-08T05:00:27;8.40;;;6.80;;
735;SDS011;352;48.626;9.238;2023-07-08T05:02:54;7.43;;;6.63;;
735;SDS011;352;48.626;9.238;2023-07-08T05:05:20;7.23;;;6.53;;
735;SDS011;352;48.626;9.238;2023-07-08T05:07:48;12.07;;;6.50;;
735;SDS011;352;48.626;9.238;2023-07-08T05:10:16;8.57;;;7.10;;
735;SDS011;352;48.626;9.238;2023-07-08T05:12:43;10.67;;;7.00;;
735;SDS011;352;48.626;9.238;2023-07-08T05:15:11;8.43;;;6.60;;
735;SDS011;352;48.626;9.238;2023-07-08T05:17:38;8.20;;;7.20;;
735;SDS011;352;48.626;9.238;2023-07-08T05:20:07;9.37;;;6.73;;
735;SDS011;352;48.626;9.238;2023-07-08T05:22:36;8.50;;;6.53;;
735;SDS011;352;48.626;9.238;2023-07-08T05:25:04;10.03;;;7.40;;
735;SDS011;352;48.626;9.238;2023-07-08T05:27:32;7.87;;;7.00;;
735;SDS011;352;48.626;9.238;2023-07-08T05:29:59;9.23;;;7.10;;
735;SDS011;352;48.626;9.238;2023-07-08T05:32:26;9.30;;;7.73;;
735;SDS011;352;48.626;9.238;2023-07-08T05:34:53;7.77;;;6.97;;
735;SDS011;352;48.626;9.238;2023-07-08T05:37:20;10.90;;;7.20;;
735;SDS011;352;48.626;9.238;2023-07-08T05:39:50;8.60;;;6.67;;
735;SDS011;352;48.626;9.238;2023-07-08T05:42:19;9.60;;;7.67;;
735;SDS011;352;48.626;9.238;2023-07-08T05:44:46;9.40;;;7.33;;
735;SDS011;352;48.626;9.238;2023-07-08T05:47:13;7.50;;;6.70;;
735;SDS011;352;48.626;9.238;2023-07-08T05:49:40;7.60;;;6.80;;
735;SDS011;352;48.626;9.238;2023-07-08T05:52:07;7.90;;;7.10;;
735;SDS011;352;48.626;9.238;2023-07-08T05:54:36;8.07;;;7.27;;
735;SDS011;352;48.626;9.238;2023-07-08T05:57:03;8.50;;;7.57;;
735;SDS011;352;48.626;9.238;2023-07-08T05:59:32;9.20;;;7.00;;
735;SDS011;352;48.626;9.238;2023-07-08T06:01:59;8.27;;;7.43;;
735;SDS011;352;48.626;9.238;2023-07-08T06:04:26;9.63;;;7.47;;
735;SDS011;352;48.626;9.238;2023-07-08T06:06:53;10.23;;;7.70;;
735;SDS011;352;48.626;9.238;2023-07-08T06:09:20;7.90;;;6.33;;
735;SDS011;352;48.626;9.238;2023-07-08T06:11:47;7.50;;;6.70;;
735;SDS011;352;48.626;9.238;2023-07-08T06:14:13;7.93;;;6.67;;
735;SDS011;352;48.626;9.238;2023-07-08T06:16:41;8.87;;;7.57;;
735;SDS011;352;48.626;9.238;2023-07-08T06:19:08;8.23;;;6.40;;
735;SDS011;352;48.626;9.238;2023-07-08T06:21:35;9.10;;;7.40;;
735;SDS011;352;48.626;9.238;2023-07-08T06:26:33;10.93;;;7.20;;
735;SDS011;352;48.626;9.238;2023-07-08T06:28:59;8.43;;;7.40;;
735;SDS011;352;48.626;9.238;2023-07-08T06:31:26;9.70;;;7.20;;
735;SDS011;352;48.626;9.238;2023-07-08T06:33:55;7.20;;;6.30;;
735;SDS011;352;48.626;9.238;2023-07-08T06:36:22;8.87;;;7.37;;
735;SDS011;352;48.626;9.238;2023-07-08T06:38:49;9.47;;;6.90;;
735;SDS011;352;48.626;9.238;2023-07-08T06:41:15;11.30;;;7.67;;
735;SDS011;352;48.626;9.238;2023-07-08T06:43:42;10.07;;;7.40;;
735;SDS011;352;48.626;9.238;2023-07-08T06:46:09;7.87;;;7.03;;
735;SDS011;352;48.626;9.238;2023-07-08T06:48:36;7.30;;;6.00;;
735;SDS011;352;48.626;9.238;2023-07-08T06:51:04;8.87;;;7.37;;
735;SDS011;352;48.626;9.238;2023-07-08T06:53:30;9.93;;;8.47;;
735;SDS011;352;48.626;9.238;2023-07-08T06:55:57;11.73;;;7.50;;
735;SDS011;352;48.626;9.238;2023-07-08T06:58:24;11.33;;;7.77;;
735;SDS011;352;48.626;9.238;2023-07-08T07:00:51;11.03;;;8.07;;
735;SDS011;352;48.626;9.238;2023-07-08T07:03:18;10.20;;;7.20;;
735;SDS011;352;48.626;9.238;2023-07-08T07:05:45;7.37;;;6.67;;
735;SDS011;352;48.626;9.238;2023-07-08T07:08:13;8.90;;;6.90;;
735;SDS011;352;48.626;9.238;2023-07-08T07:10:40;8.80;;;6.43;;
735;SDS011;352;48.626;9.238;2023-07-08T07:13:06;8.93;;;6.40;;
735;SDS011;352;48.626;9.238;2023-07-08T07:15:33;8.23;;;6.80;;
735;SDS011;352;48.626;9.238;2023-07-08T07:18:00;7.40;;;6.10;;
735;SDS011;352;48.626;9.238;2023-07-08T07:20:27;7.43;;;6.67;;
735;SDS011;352;48.626;9.238;2023-07-08T07:22:54;8.00;;;5.93;;
735;SDS011;352;48.626;9.238;2023-07-08T07:25:22;7.80;;;7.10;;
735;SDS011;352;48.626;9.238;2023-07-08T07:27:49;8.57;;;6.97;;
735;SDS011;352;48.626;9.238;2023-07-08T07:30:15;7.93;;;6.70;;
735;SDS011;352;48.626;9.238;2023-07-08T07:32:42;7.13;;;6.40;;
735;SDS011;352;48.626;9.238;2023-07-08T07:35:09;8.20;;;6.73;;
735;SDS011;352;48.626;9.238;2023-07-08T07:37:38;8.60;;;7.50;;
735;SDS011;352;48.626;9.238;2023-07-08T07:40:06;8.73;;;7.13;;
735;SDS011;352;48.626;9.238;2023-07-08T07:42:38;8.87;;;6.63;;
735;SDS011;352;48.626;9.238;2023-07-08T07:45:06;8.40;;;6.83;;
735;SDS011;352;48.626;9.238;2023-07-08T07:47:33;8.80;;;6.33;;
735;SDS011;352;48.626;9.238;2023-07-08T07:50:00;8.33;;;6.53;;
735;SDS011;352;48.626;9.238;2023-07-08T07:52:27;10.20;;;5.40;;
735;SDS011;352;48.626;9.238;2023-07-08T07:54:54;8.57;;;5.80;;
735;SDS011;352;48.626;9.238;2023-07-08T07:57:21;9.63;;;6.73;;
735;SDS011;352;48.626;9.238;2023-07-08T07:59:50;6.23;;;5.63;;
735;SDS011;352;48.626;9.238;2023-07-08T08:02:16;9.87;;;6.30;;
735;SDS011;352;48.626;9.238;2023-07-08T08:04:44;10.63;;;5.33;;
735;SDS011;352;48.626;9.238;2023-07-08T08:07:11;6.50;;;5.60;;
735;SDS011;352;48.626;9.238;2023-07-08T08:09:38;7.10;;;5.50;;
735;SDS011;352;48.626;9.238;2023-07-08T08:12:07;9.27;;;5.70;;
735;SDS011;352;48.626;9.238;2023-07-08T08:14:35;6.50;;;5.80;;
735;SDS011;352;48.626;9.238;2023-07-08T08:17:04;9.27;;;6.47;;
735;SDS011;352;48.626;9.238;2023-07-08T08:19:31;7.80;;;6.00;;
735;SDS011;352;48.626;9.238;2023-07-08T08:21:58;7.30;;;5.83;;
735;SDS011;352;48.626;9.238;2023-07-08T08:24:25;7.60;;;5.33;;
735;SDS011;352;48.626;9.238;2023-07-08T08:26:51;9.67;;;6.60;;
735;SDS011;352;48.626;9.238;2023-07-08T08:29:18;8.57;;;6.00;;
735;SDS011;352;48.626;9.238;2023-07-08T08:31:45;7.23;;;6.53;;
735;SDS011;352;48.626;9.238;2023-07-08T08:34:14;9.10;;;7.10;;
735;SDS011;352;48.626;9.238;2023-07-08T08:36:40;8.30;;;6.70;;
735;SDS011;352;48.626;9.238;2023-07-08T08:39:07;9.47;;;7.20;;
735;SDS011;352;48.626;9.238;2023-07-08T08:41:35;6.70;;;6.00;;
735;SDS011;352;48.626;9.238;2023-07-08T08:44:03;9.73;;;7.57;;
735;SDS011;352;48.626;9.238;2023-07-08T08:46:34;30.07;;;26.00;;
735;SDS011;352;48.626;9.238;2023-07-08T08:49:10;42.93;;;37.50;;
735;SDS011;352;48.626;9.238;2023-07-08T08:51:44;8.77;;;7.57;;
735;SDS011;352;48.626;9.238;2023-07-08T08:54:11;9.03;;;6.70;;
735;SDS011;352;48.626;9.238;2023-07-08T08:56:38;9.63;;;7.63;;
735;SDS011;352;48.626;9.238;2023-07-08T08:59:12;7.57;;;6.67;;
735;SDS011;352;48.626;9.238;2023-07-08T09:01:45;8.57;;;6.90;;
735;SDS011;352;48.626;9.238;2023-07-08T09:04:14;7.60;;;6.40;;
735;SDS011;352;48.626;9.238;2023-07-08T09:06:47;7.70;;;6.90;;
735;SDS011;352;48.626;9.238;2023-07-08T09:09:17;7.70;;;6.33;;
735;SDS011;352;48.626;9.238;2023-07-08T09:11:48;9.37;;;6.60;;
735;SDS011;352;48.626;9.238;2023-07-08T09:14:22;9.07;;;6.70;;
735;SDS011;352;48.626;9.238;2023-07-08T09:16:52;7.57;;;6.20;;
735;SDS011;352;48.626;9.238;2023-07-08T09:19:26;9.50;;;6.90;;
735;SDS011;352;48.626;9.238;2023-07-08T09:21:59;8.90;;;6.10;;
735;SDS011;352;48.626;9.238;2023-07-08T09:24:31;6.80;;;6.10;;
735;SDS011;352;48.626;9.238;2023-07-08T09:27:04;9.40;;;6.60;;
735;SDS011;352;48.626;9.238;2023-07-08T09:29:32;6.40;;;5.80;;
735;SDS011;352;48.626;9.238;2023-07-08T09:31:59;8.13;;;5.70;;
735;SDS011;352;48.626;9.238;2023-07-08T09:34:41;7.57;;;6.03;;
735;SDS011;352;48.626;9.238;2023-07-08T09:37:22;9.10;;;5.77;;
735;SDS011;352;48.626;9.238;2023-07-08T09:39:51;8.20;;;6.60;;
735;SDS011;352;48.626;9.238;2023-07-08T09:42:18;6.77;;;6.10;;
735;SDS011;352;48.626;9.238;2023-07-08T09:44:46;7.63;;;6.00;;
735;SDS011;352;48.626;9.238;2023-07-08T09:47:20;6.37;;;5.77;;
735;SDS011;352;48.626;9.238;2023-07-08T09:49:50;8.00;;;5.50;;
735;SDS011;352;48.626;9.238;2023-07-08T09:52:18;6.33;;;5.20;;
735;SDS011;352;48.626;9.238;2023-07-08T09:54:45;5.80;;;5.20;;
735;SDS011;352;48.626;9.238;2023-07-08T09:57:16;5.20;;;4.70;;
735;SDS011;352;48.626;9.238;2023-07-08T09:59:52;6.60;;;5.03;;
735;SDS011;352;48.626;9.238;2023-07-08T10:02:30;7.07;;;5.10;;
735;SDS011;352;48.626;9.238;2023-07-08T10:05:01;10.13;;;8.87;;
735;SDS011;352;48.626;9.238;2023-07-08T10:07:36;9.37;;;6.63;;
735;SDS011;352;48.626;9.238;2023-07-08T10:10:04;10.70;;;9.60;;
735;SDS011;352;48.626;9.238;2023-07-08T10:12:36;4.87;;;3.97;;
735;SDS011;352;48.626;9.238;2023-07-08T10:15:07;6.50;;;4.90;;
735;SDS011;352;48.626;9.238;2023-07-08T10:17:43;4.30;;;3.93;;
735;SDS011;352;48.626;9.238;2023-07-08T10:20:12;4.53;;;3.90;;
735;SDS011;352;48.626;9.238;2023-07-08T10:22:41;5.20;;;4.17;;
735;SDS011;352;48.626;9.238;2023-07-08T10:25:16;5.20;;;4.60;;
735;SDS011;352;48.626;9.238;2023-07-08T10:27:56;5.47;;;4.70;;
735;SDS011;352;48.626;9.238;2023-07-08T10:30:27;4.30;;;3.90;;
735;SDS011;352;48.626;9.238;2023-07-08T10:35:53;4.23;;;3.80;;
735;SDS011;352;48.626;9.238;2023-07-08T10:38:37;4.03;;;3.63;;
735;SDS011;352;48.626;9.238;2023-07-08T10:41:17;3.70;;;3.20;;
735;SDS011;352;48.626;9.238;2023-07-08T10:43:55;3.67;;;3.23;;
735;SDS011;352;48.626;9.238;2023-07-08T10:46:31;4.37;;;3.97;;
735;SDS011;352;48.626;9.238;2023-07-08T10:49:21;3.10;;;2.80;;
735;SDS011;352;48.626;9.238;2023-07-08T10:52:00;3.37;;;3.07;;
735;SDS011;352;48.626;9.238;2023-07-08T10:54:41;3.70;;;3.40;;
735;SDS011;352;48.626;9.238;2023-07-08T10:57:25;3.27;;;3.00;;
735;SDS011;352;48.626;9.238;2023-07-08T11:00:07;5.43;;;3.30;;
735;SDS011;352;48.626;9.238;2023-07-08T11:02:57;3.53;;;3.10;;
735;SDS011;352;48.626;9.238;2023-07-08T11:05:38;3.80;;;3.50;;
735;SDS011;352;48.626;9.238;2023-07-08T11:08:12;7.50;;;2.70;;
735;SDS011;352;48.626;9.238;2023-07-08T11:10:47;3.50;;;3.20;;
735;SDS011;352;48.626;9.238;2023-07-08T11:13:17;3.77;;;3.40;;
735;SDS011;352;48.626;9.238;2023-07-08T11:15:46;3.03;;;2.83;;
735;SDS011;352;48.626;9.238;2023-07-08T11:18:19;3.57;;;3.27;;
735;SDS011;352;48.626;9.238;2023-07-08T11:20:55;3.20;;;2.90;;
735;SDS011;352;48.626;9.238;2023-07-08T11:23:29;3.17;;;2.83;;
735;SDS011;352;48.626;9.238;2023-07-08T11:26:07;3.90;;;2.97;;
735;SDS011;352;48.626;9.238;2023-07-08T11:28:42;3.93;;;3.53;;
735;SDS011;352;48.626;9.238;2023-07-08T11:31:09;3.23;;;2.97;;
735;SDS011;352;48.626;9.238;2023-07-08T11:33:37;3.10;;;2.80;;
735;SDS011;352;48.626;9.238;2023-07-08T11:36:05;3.77;;;2.70;;
735;SDS011;352;48.626;9.238;2023-07-08T11:38:35;5.43;;;3.40;;
735;SDS011;352;48.626;9.238;2023-07-08T11:41:04;2.93;;;2.73;;
735;SDS011;352;48.626;9.238;2023-07-08T11:43:42;3.27;;;2.97;;
735;SDS011;352;48.626;9.238;2023-07-08T11:46:12;3.53;;;2.70;;
735;SDS011;352;48.626;9.238;2023-07-08T11:48:42;3.50;;;3.20;;
735;SDS011;352;48.626;9.238;2023-07-08T11:51:16;3.60;;;3.03;;
735;SDS011;352;48.626;9.238;2023-07-08T11:53:49;3.33;;;2.80;;
735;SDS011;352;48.626;9.238;2023-07-08T11:56:24;3.30;;;3.00;;
735;SDS011;352;48.626;9.238;2023-07-08T11:58:57;3.13;;;2.60;;
735;SDS011;352;48.626;9.238;2023-07-08T12:01:39;2.87;;;2.67;;
735;SDS011;352;48.626;9.238;2023-07-08T12:04:17;2.90;;;2.70;;
735;SDS011;352;48.626;9.238;2023-07-08T12:06:53;3.33;;;3.03;;
735;SDS011;352;48.626;9.238;2023-07-08T12:09:36;5.13;;;2.90;;
735;SDS011;352;48.626;9.238;2023-07-08T12:12:06;5.03;;;3.20;;
735;SDS011;352;48.626;9.238;2023-07-08T12:14:40;3.03;;;2.70;;
735;SDS011;352;48.626;9.238;2023-07-08T12:17:08;2.70;;;2.50;;
735;SDS011;352;48.626;9.238;2023-07-08T12:19:37;4.53;;;3.03;;
735;SDS011;352;48.626;9.238;2023-07-08T12:22:07;4.10;;;3.00;;
735;SDS011;352;48.626;9.238;2023-07-08T12:24:36;4.03;;;2.90;;
735;SDS011;352;48.626;9.238;2023-07-08T12:27:02;5.03;;;2.77;;
735;SDS011;352;48.626;9.238;2023-07-08T12:29:31;4.10;;;2.80;;
735;SDS011;352;48.626;9.238;2023-07-08T12:31:58;2.90;;;2.70;;
735;SDS011;352;48.626;9.238;2023-07-08T12:34:25;3.20;;;2.90;;
735;SDS011;352;48.626;9.238;2023-07-08T12:36:52;3.03;;;2.70;;
735;SDS011;352;48.626;9.238;2023-07-08T12:39:20;2.60;;;2.40;;
735;SDS011;352;48.626;9.238;2023-07-08T12:41:48;5.03;;;2.90;;
735;SDS011;352;48.626;9.238;2023-07-08T12:44:17;2.87;;;2.67;;
735;SDS011;352;48.626;9.238;2023-07-08T12:46:46;3.77;;;3.20;;
735;SDS011;352;48.626;9.238;2023-07-08T12:49:14;3.03;;;2.67;;
735;SDS011;352;48.626;9.238;2023-07-08T12:51:43;4.67;;;2.73;;
735;SDS011;352;48.626;9.238;2023-07-08T12:54:11;3.30;;;3.00;;
735;SDS011;352;48.626;9.238;2023-07-08T12:56:38;3.07;;;2.57;;
735;SDS011;352;48.626;9.238;2023-07-08T12:59:10;4.43;;;2.53;;
735;SDS011;352;48.626;9.238;2023-07-08T13:01:40;3.37;;;3.07;;
735;SDS011;352;48.626;9.238;2023-07-08T13:04:09;2.87;;;2.67;;
735;SDS011;352;48.626;9.238;2023-07-08T13:06:37;3.03;;;2.83;;
735;SDS011;352;48.626;9.238;2023-07-08T13:09:08;3.40;;;3.10;;
735;SDS011;352;48.626;9.238;2023-07-08T13:11:44;3.33;;;3.03;;
735;SDS011;352;48.626;9.238;2023-07-08T13:14:13;3.40;;;3.10;;
735;SDS011;352;48.626;9.238;2023-07-08T13:16:40;4.20;;;3.43;;
735;SDS011;352;48.626;9.238;2023-07-08T13:19:08;3.43;;;2.80;;
735;SDS011;352;48.626;9.238;2023-07-08T13:21:38;4.47;;;3.07;;
735;SDS011;352;48.626;9.238;2023-07-08T13:24:07;3.53;;;3.23;;
735;SDS011;352;48.626;9.238;2023-07-08T13:26:35;3.50;;;3.13;;
735;SDS011;352;48.626;9.238;2023-07-08T13:29:04;4.00;;;3.10;;
735;SDS011;352;48.626;9.238;2023-07-08T13:31:38;4.00;;;3.30;;
735;SDS011;352;48.626;9.238;2023-07-08T13:34:06;2.87;;;2.67;;
735;SDS011;352;48.626;9.238;2023-07-08T13:36:36;5.80;;;3.37;;
735;SDS011;352;48.626;9.238;2023-07-08T13:39:05;3.50;;;3.20;;
735;SDS011;352;48.626;9.238;2023-07-08T13:41:33;3.37;;;2.97;;
735;SDS011;352;48.626;9.238;2023-07-08T13:44:03;3.80;;;3.33;;
735;SDS011;352;48.626;9.238;2023-07-08T13:46:33;3.97;;;3.10;;
735;SDS011;352;48.626;9.238;2023-07-08T13:49:07;3.50;;;3.20;;
735;SDS011;352;48.626;9.238;2023-07-08T13:51:37;4.10;;;3.47;;
735;SDS011;352;48.626;9.238;2023-07-08T13:54:08;4.53;;;2.93;;
735;SDS011;352;48.626;9.238;2023-07-08T13:56:41;3.27;;;2.97;;
735;SDS011;352;48.626;9.238;2023-07-08T13:59:09;3.60;;;3.17;;
735;SDS011;352;48.626;9.238;2023-07-08T14:01:39;6.60;;;3.00;;
735;SDS011;352;48.626;9.238;2023-07-08T14:04:10;3.00;;;2.67;;
735;SDS011;352;48.626;9.238;2023-07-08T14:06:39;3.70;;;3.30;;
735;SDS011;352;48.626;9.238;2023-07-08T14:09:10;6.53;;;3.47;;
735;SDS011;352;48.626;9.238;2023-07-08T14:11:38;3.23;;;2.93;;
735;SDS011;352;48.626;9.238;2023-07-08T14:14:05;3.60;;;3.10;;
735;SDS011;352;48.626;9.238;2023-07-08T14:16:33;3.60;;;3.30;;
735;SDS011;352;48.626;9.238;2023-07-08T14:19:03;4.13;;;3.37;;
735;SDS011;352;48.626;9.238;2023-07-08T14:21:33;4.77;;;3.33;;
735;SDS011;352;48.626;9.238;2023-07-08T14:24:01;6.23;;;3.33;;
735;SDS011;352;48.626;9.238;2023-07-08T14:26:34;3.67;;;3.30;;
735;SDS011;352;48.626;9.238;2023-07-08T14:29:01;5.30;;;2.90;;
735;SDS011;352;48.626;9.238;2023-07-08T14:31:27;5.47;;;3.30;;
735;SDS011;352;48.626;9.238;2023-07-08T14:33:56;7.07;;;3.03;;
735;SDS011;352;48.626;9.238;2023-07-08T14:36:28;2.77;;;2.57;;
735;SDS011;352;48.626;9.238;2023-07-08T14:38:56;3.93;;;3.63;;
735;SDS011;352;48.626;9.238;2023-07-08T14:41:23;3.27;;;2.97;;
735;SDS011;352;48.626;9.238;2023-07-08T14:43:50;3.77;;;3.20;;
735;SDS011;352;48.626;9.238;2023-07-08T14:46:17;2.93;;;2.73;;
735;SDS011;352;48.626;9.238;2023-07-08T14:48:44;2.80;;;2.60;;
735;SDS011;352;48.626;9.238;2023-07-08T14:51:11;3.20;;;2.80;;
735;SDS011;352;48.626;9.238;2023-07-08T14:53:37;3.20;;;2.77;;
735;SDS011;352;48.626;9.238;2023-07-08T14:56:08;3.80;;;2.77;;
735;SDS011;352;48.626;9.238;2023-07-08T14:58:40;3.37;;;2.47;;
735;SDS011;352;48.626;9.238;2023-07-08T15:01:12;3.60;;;3.13;;
735;SDS011;352;48.626;9.238;2023-07-08T15:03:43;4.00;;;3.00;;
735;SDS011;352;48.626;9.238;2023-07-08T15:06:10;3.37;;;2.87;;
735;SDS011;352;48.626;9.238;2023-07-08T15:08:37;4.53;;;3.33;;
735;SDS011;352;48.626;9.238;2023-07-08T15:11:05;4.83;;;2.80;;
735;SDS011;352;48.626;9.238;2023-07-08T15:13:35;3.53;;;3.00;;
735;SDS011;352;48.626;9.238;2023-07-08T15:16:03;4.00;;;2.90;;
735;SDS011;352;48.626;9.238;2023-07-08T15:18:30;3.60;;;2.47;;
735;SDS011;352;48.626;9.238;2023-07-08T15:20:58;5.70;;;5.23;;
735;SDS011;352;48.626;9.238;2023-07-08T15:23:25;3.17;;;2.47;;
735;SDS011;352;48.626;9.238;2023-07-08T15:25:51;2.67;;;2.47;;
735;SDS011;352;48.626;9.238;2023-07-08T15:28:31;2.87;;;2.67;;
735;SDS011;352;48.626;9.238;2023-07-08T15:31:07;3.07;;;2.87;;
735;SDS011;352;48.626;9.238;2023-07-08T15:33:34;3.90;;;2.90;;
735;SDS011;352;48.626;9.238;2023-07-08T15:36:01;3.53;;;2.60;;
735;SDS011;352;48.626;9.238;2023-07-08T15:38:28;2.77;;;2.57;;
735;SDS011;352;48.626;9.238;2023-07-08T15:40:54;3.90;;;3.60;;
735;SDS011;352;48.626;9.238;2023-07-08T15:43:22;4.90;;;2.73;;
735;SDS011;352;48.626;9.238;2023-07-08T15:45:49;3.00;;;2.70;;
735;SDS011;352;48.626;9.238;2023-07-08T15:48:16;3.20;;;2.90;;
735;SDS011;352;48.626;9.238;2023-07-08T15:50:44;5.10;;;3.10;;
735;SDS011;352;48.626;9.238;2023-07-08T15:53:11;4.33;;;3.07;;
735;SDS011;352;48.626;9.238;2023-07-08T15:55:40;3.70;;;2.90;;
735;SDS011;352;48.626;9.238;2023-07-08T15:58:09;2.93;;;2.73;;
735;SDS011;352;48.626;9.238;2023-07-08T16:00:40;2.90;;;2.50;;
735;SDS011;352;48.626;9.238;2023-07-08T16:03:09;3.30;;;2.60;;
735;SDS011;352;48.626;9.238;2023-07-08T16:05:39;3.37;;;2.70;;